Data for 09/18/2006

Time Sea-Level Adjusted Pressure Absolute Pressure Temperature Relative Humidity Dew Point   
(mb) (inHg) (mb) (inHg) (C) (F) (%) (C) (F)
00:05 1023 30.21 852 25.16 8.3 46.9 53 -0.7 30.8
00:10 1023 30.21 852 25.16 8.3 46.9 54 -0.5 31
00:15 1023 30.21 852 25.16 8.1 46.6 55 -0.4 31.2
00:20 1023 30.21 852 25.16 7.8 46.1 56 -0.4 31.4
00:25 1023 30.21 852 25.16 7.7 45.9 57 -0.3 31.4
00:30 1023 30.21 852 25.16 7.8 46 54 -0.8 30.5
00:35 1023 30.21 852 25.16 7.9 46.2 54 -0.9 30.4
00:40 1023 30.21 852 25.16 8 46.4 54 -0.6 30.9
00:45 1023 30.21 852 25.16 8 46.4 54 -0.7 30.7
00:50 1023 30.21 852 25.16 7.9 46.2 55 -0.6 30.9
00:55 1023 30.21 852 25.16 8 46.3 55 -0.6 31
01:00 1023 30.21 852 25.16 7.9 46.2 55 -0.7 30.8
01:05 1023 30.21 852 25.16 7.8 46 55 -0.6 31
01:10 1023 30.21 852 25.16 7.7 45.9 56 -0.6 31
01:15 1023 30.21 852 25.16 7.8 46 56 -0.5 31
01:20 1023 30.21 852 25.16 7.8 46 55 -0.6 31
01:25 1023 30.21 852 25.16 7.8 46 55 -0.6 30.8
01:30 1023 30.21 852 25.16 7.8 46.1 55 -0.7 30.8
01:35 1023 30.21 852 25.16 7.8 46.1 54 -0.8 30.5
01:40 1023 30.21 852 25.16 7.8 46 55 -0.7 30.8
01:45 1023 30.21 852 25.16 7.7 45.9 55 -0.8 30.6
01:50 1023 30.21 852 25.16 7.7 45.8 56 -0.6 30.9
01:55 1023 30.21 852 25.16 7.5 45.4 58 -0.2 31.7
02:00 1023 30.21 852 25.16 7.3 45.2 58 -0.3 31.4
02:05 1023 30.21 852 25.16 7.4 45.3 58 -0.2 31.6
02:10 1023 30.21 852 25.16 7.3 45.2 58 -0.3 31.5
02:15 1023 30.21 852 25.16 7.5 45.4 58 -0.2 31.7
02:20 1023 30.21 852 25.16 7.6 45.6 57 -0.3 31.4
02:25 1023 30.21 852 25.16 7.6 45.8 57 -0.4 31.3
02:30 1023 30.21 852 25.16 7.7 45.8 58 -0.1 31.8
02:35 1023 30.21 852 25.16 7.6 45.7 60 0.4 32.7
02:40 1023 30.21 852 25.16 7.5 45.4 62 0.7 33.2
02:45 1023 30.21 852 25.16 7.4 45.4 60 0.2 32.4
02:50 1023 30.21 852 25.16 7.5 45.4 62 0.7 33.3
02:55 1023 30.21 852 25.16 7.4 45.4 60 0.2 32.4
03:00 1023 30.21 852 25.16 7.6 45.6 59 0.1 32.1
03:05 1023 30.21 852 25.16 7.6 45.7 60 0.3 32.6
03:10 1023 30.21 852 25.16 7.4 45.4 61 0.5 32.9
03:15 1023 30.21 852 25.16 7.4 45.2 62 0.5 32.9
03:20 1023 30.21 852 25.16 7.3 45.1 61 0.3 32.5
03:25 1023 30.21 852 25.16 7.2 45 61 0.3 32.6
03:30 1023 30.21 852 25.16 7.2 44.9 62 0.3 32.6
03:35 1023 30.21 852 25.16 7.1 44.8 64 0.7 33.3
03:40 1023 30.21 852 25.16 7.1 44.8 61 0 32.1
03:45 1023 30.21 852 25.16 7 44.6 62 0.2 32.3
03:50 1023 30.21 852 25.16 6.9 44.5 62 0.3 32.5
03:55 1023 30.21 852 25.16 7.1 44.7 61 -0 31.9
04:00 1023 30.21 852 25.16 7.1 44.7 62 0.3 32.6
04:05 1023 30.21 852 25.16 6.7 44.1 64 0.4 32.8
04:10 1023 30.21 852 25.16 6.6 43.9 64 0.2 32.4
04:15 1023 30.21 852 25.16 6.6 43.9 65 0.5 32.9
04:20 1023 30.21 852 25.16 6.5 43.7 65 0.5 32.9
04:25 1023 30.21 852 25.16 6.4 43.6 64 0.1 32.2
04:30 1023 30.21 852 25.16 6.5 43.7 65 0.5 32.9
04:35 1023 30.21 852 25.16 6.4 43.5 66 0.6 33.1
04:40 1023 30.21 852 25.16 6.4 43.6 64 0.1 32.2
04:45 1023 30.21 852 25.16 6.6 43.8 64 0.2 32.3
04:50 1023 30.21 852 25.16 6.5 43.7 69 1.2 34.2
04:55 1023 30.21 852 25.16 6.2 43.2 70 1.2 34.1
05:00 1023 30.21 852 25.16 6.3 43.3 69 1 33.8
05:05 1023 30.21 852 25.16 6.3 43.3 67 0.7 33.3
05:10 1023 30.21 852 25.16 6.3 43.4 65 0.2 32.4
05:15 1023 30.21 852 25.16 6.4 43.6 66 0.5 32.9
05:20 1023 30.21 852 25.16 6.3 43.3 63 -0.3 31.5
05:25 1023 30.21 852 25.16 6.2 43.2 68 0.7 33.3
05:30 1023 30.21 852 25.16 5.8 42.4 70 0.7 33.3
05:35 1023 30.21 852 25.16 5.7 42.3 70 0.7 33.2
05:40 1023 30.21 852 25.16 5.6 42.1 71 0.7 33.2
05:45 1023 30.21 852 25.16 5.5 41.8 71 0.6 33.1
05:50 1023 30.21 852 25.16 5.3 41.5 72 0.6 33.1
05:55 1023 30.21 852 25.16 5.1 41.2 72 0.5 32.9
06:00 1023 30.21 852 25.16 5 41 72 0.4 32.7
06:05 1022 30.18 852 25.16 4.9 40.9 72 0.4 32.7
06:10 1022 30.18 852 25.16 4.6 40.3 74 0.3 32.6
06:15 1022 30.18 852 25.16 4.4 39.9 75 0.3 32.6
06:20 1022 30.18 852 25.16 4.3 39.8 75 0.3 32.6
06:25 1022 30.18 852 25.16 4.1 39.4 76 0.3 32.6
06:30 1023 30.21 852 25.16 4.1 39.3 76 0.3 32.5
06:35 1023 30.21 852 25.16 3.9 39.1 76 0.1 32.1
06:40 1022 30.18 852 25.16 3.9 39 77 0.1 32.2
06:45 1022 30.18 852 25.16 3.9 38.9 77 0.2 32.3
06:50 1022 30.18 852 25.16 4 39.2 76 0.2 32.3
06:55 1022 30.18 852 25.16 3.9 39.1 76 0.1 32.2
07:00 1022 30.18 852 25.16 3.7 38.7 77 0.1 32.1
07:05 1022 30.18 852 25.16 3.8 38.8 76 -0 31.9
07:10 1022 30.18 852 25.16 3.7 38.6 77 -0 32
07:15 1022 30.18 852 25.16 3.6 38.4 77 -0.1 31.8
07:20 1023 30.21 852 25.16 3.5 38.3 78 -0 31.9
07:25 1023 30.21 852 25.16 3.3 37.9 78 -0.1 31.8
07:30 1022 30.18 852 25.16 3.3 37.9 78 -0.2 31.6
07:35 1022 30.18 852 25.16 3.3 38 77 -0.3 31.5
07:40 1022 30.18 852 25.16 3.3 38 77 -0.3 31.5
07:45 1022 30.18 852 25.16 3.2 37.8 77 -0.4 31.3
07:50 1023 30.21 852 25.16 3.5 38.2 77 -0.3 31.5
07:55 1023 30.21 852 25.16 3.6 38.5 76 -0.3 31.5
08:00 1023 30.21 852 25.16 3.9 39 74 -0.2 31.6
08:05 1023 30.21 852 25.16 4.2 39.6 73 -0.2 31.7
08:10 1023 30.21 852 25.16 4.7 40.4 71 -0.1 31.8
08:15 1022 30.18 852 25.16 5.4 41.6 69 0.1 32.1
08:20 1022 30.18 852 25.16 5.8 42.4 67 0.1 32.2
08:25 1022 30.18 852 25.16 6.3 43.3 67 0.5 32.9
08:30 1022 30.18 852 25.16 6.3 43.3 66 0.3 32.6
08:35 1022 30.18 852 25.16 6.5 43.7 64 0.2 32.3
08:40 1022 30.18 852 25.16 6.9 44.4 63 0.3 32.5
08:45 1022 30.18 852 25.16 6.8 44.2 63 0.2 32.4
08:50 1023 30.21 852 25.16 6.7 44 64 0.3 32.5
08:55 1022 30.18 852 25.16 7.4 45.3 61 0.3 32.6
09:00 1022 30.18 852 25.16 8 46.3 58 0.3 32.5
09:05 1022 30.18 852 25.16 8.3 46.9 59 0.7 33.2
09:10 1022 30.18 852 25.16 8.6 47.5 56 0.4 32.7
09:15 1022 30.18 852 25.16 9.1 48.3 55 0.6 33.1
09:20 1022 30.18 852 25.16 9.5 49 51 -0.2 31.7
09:25 1022 30.18 852 25.16 9.8 49.6 51 0 32.1
09:30 1022 30.18 852 25.16 10.1 50.2 47 -0.5 31.1
09:35 1022 30.18 852 25.16 10 50 46 -1 30.3
09:40 1022 30.18 852 25.16 9.8 49.6 50 -0.2 31.7
09:45 1022 30.18 852 25.16 10 49.9 47 -0.7 30.7
09:50 1022 30.18 852 25.16 10.8 51.5 44 -0.8 30.6
09:55 1022 30.18 852 25.16 11.7 53.1 42 -0.9 30.4
10:00 1022 30.18 851 25.13 11.2 52.2 45 -0.3 31.5
10:05 1022 30.18 851 25.13 10 50 49 -0.2 31.6
10:10 1022 30.18 851 25.13 10.6 51 45 -0.8 30.5
10:15 1022 30.18 851 25.13 11 51.8 46 -0.2 31.6
10:20 1022 30.18 851 25.13 10.6 51 44 -1.1 30.1
10:25 1022 30.18 851 25.13 10.8 51.4 44 -0.8 30.5
10:30 1022 30.18 851 25.13 11.2 52.1 46 -0.1 31.8
10:35 1022 30.18 851 25.13 11.7 53.1 45 0.1 32.1
10:40 1022 30.18 851 25.13 12.3 54.1 43 0.1 32.2
10:45 1022 30.18 851 25.13 12 53.6 44 0.3 32.5
10:50 1022 30.18 851 25.13 12.2 53.9 45 0.6 33
10:55 1022 30.18 851 25.13 12.1 53.8 46 0.9 33.5
11:00 1022 30.18 851 25.13 11.5 52.7 46 0.5 32.8
11:05 1022 30.18 851 25.13 11.4 52.6 48 0.7 33.3
11:10 1022 30.18 851 25.13 12.1 53.7 46 0.8 33.5
11:15 1022 30.18 851 25.13 12.1 53.8 44 0.5 32.8
11:20 1022 30.18 851 25.13 12.4 54.4 42 -0 32
11:25 1022 30.18 851 25.13 12 53.6 44 0.2 32.3
11:30 1022 30.18 851 25.13 12.3 54.2 43 0.2 32.3
11:35 1022 30.18 851 25.13 12.4 54.3 44 0.4 32.7
11:40 1022 30.18 851 25.13 12.2 54 40 -0.8 30.5
11:45 1022 30.18 851 25.13 12.6 54.6 41 -0.4 31.3
11:50 1022 30.18 851 25.13 13.8 56.8 38 -0.4 31.3
11:55 1022 30.18 851 25.13 13.4 56.1 39 -0.1 31.8
12:00 1022 30.18 851 25.13 13.5 56.3 37 -0.7 30.8
12:05 1022 30.18 851 25.13 14.1 57.3 36 -0.8 30.5
12:10 1022 30.18 851 25.13 13.8 56.9 37 -0.6 30.9
12:15 1022 30.18 851 25.13 12.6 54.7 38 -1.2 29.9
12:20 1022 30.18 851 25.13 12.4 54.3 40 -0.9 30.5
12:25 1021 30.15 851 25.13 12.9 55.3 38 -1 30.2
12:30 1021 30.15 851 25.13 13.2 55.7 37 -0.9 30.3
12:35 1021 30.15 851 25.13 14.5 58.2 34 -1.1 30
12:40 1021 30.15 851 25.13 15.1 59.1 33 -0.9 30.4
12:45 1021 30.15 850 25.1 14.6 58.3 35 -0.8 30.6
12:50 1021 30.15 850 25.1 14.7 58.5 35 -0.7 30.8
12:55 1021 30.15 850 25.1 14.6 58.4 34 -0.9 30.3
13:00 1021 30.15 850 25.1 14.9 58.8 34 -0.9 30.3
13:05 1021 30.15 850 25.1 15.8 60.5 31 -1.1 30
13:10 1021 30.15 850 25.1 14.8 58.7 36 -0.2 31.7
13:15 1021 30.15 850 25.1 15.1 59.1 34 -0.7 30.8
13:20 1021 30.15 850 25.1 15.9 60.6 32 -0.5 31
13:25 1021 30.15 850 25.1 15.9 60.7 31 -1 30.2
13:30 1021 30.15 850 25.1 16.1 60.9 32 -0.3 31.4
13:35 1021 30.15 850 25.1 16.3 61.3 31 -0.8 30.6
13:40 1021 30.15 850 25.1 16.6 61.9 31 -0.4 31.3
13:45 1021 30.15 850 25.1 16.2 61.1 33 0.1 32.2
13:50 1021 30.15 850 25.1 16.1 61 32 -0.5 31.2
13:55 1021 30.15 850 25.1 15.1 59.1 33 -1.1 30
14:00 1021 30.15 850 25.1 14.9 58.8 33 -1.2 29.8
14:05 1021 30.15 850 25.1 16 60.7 27 -2.7 27.1
14:10 1021 30.15 850 25.1 17.1 62.8 26 -2.6 27.2
14:15 1020 30.12 850 25.1 17.4 63.3 25 -2.8 26.9
14:20 1020 30.12 850 25.1 17.5 63.6 23 -3.9 24.9
14:25 1020 30.12 850 25.1 16.6 61.9 23 -4.5 24
14:30 1020 30.12 850 25.1 16 60.8 24 -4.4 24
14:35 1020 30.12 850 25.1 16.6 61.8 23 -4.3 24.2
14:40 1020 30.12 849 25.07 16.9 62.4 21 -5.2 22.6
14:45 1020 30.12 849 25.07 17 62.6 21 -5.3 22.5
14:50 1020 30.12 849 25.07 16.4 61.5 23 -4.8 23.3
14:55 1020 30.12 849 25.07 17.2 63 22 -4.6 23.8
15:00 1020 30.12 849 25.07 16.9 62.5 22 -5.1 22.8
15:05 1020 30.12 849 25.07 16.8 62.2 21 -5.4 22.3
15:10 1020 30.12 849 25.07 16.8 62.3 22 -5 23
15:15 1020 30.12 849 25.07 17.7 63.9 19 -6.2 20.8
15:20 1020 30.12 849 25.07 17.6 63.6 20 -5.4 22.2
15:25 1020 30.12 849 25.07 18.2 64.8 20 -5.2 22.6
15:30 1020 30.12 849 25.07 17.7 63.8 21 -5.1 22.9
15:35 1020 30.12 849 25.07 17.9 64.1 19 -5.7 21.7
15:40 1020 30.12 849 25.07 17.4 63.3 19 -6 21.1
15:45 1020 30.12 849 25.07 18.1 64.5 19 -5.8 21.5
15:50 1020 30.12 849 25.07 18.4 65.1 21 -4.4 24.1
15:55 1020 30.12 849 25.07 18 64.4 21 -4.4 24.2
16:00 1020 30.12 849 25.07 17.9 64.2 21 -4.5 24
16:05 1020 30.12 849 25.07 17.3 63.2 23 -3.7 25.4
16:10 1020 30.12 849 25.07 18 64.4 22 -3.8 25.1
16:15 1020 30.12 849 25.07 17.9 64.3 23 -3.6 25.5
16:20 1020 30.12 849 25.07 18.3 64.9 21 -4 24.8
16:25 1020 30.12 849 25.07 18.3 64.9 20 -4.8 23.4
16:30 1020 30.12 849 25.07 18.2 64.8 21 -4.5 23.9
16:35 1020 30.12 849 25.07 18.5 65.3 21 -3.9 24.9
16:40 1020 30.12 849 25.07 18.7 65.6 20 -4.5 23.8
16:45 1020 30.12 849 25.07 18.2 64.8 21 -4.2 24.4
16:50 1019 30.09 849 25.07 17.7 63.8 23 -3.7 25.3
16:55 1019 30.09 849 25.07 17.9 64.3 22 -4.1 24.7
17:00 1019 30.09 849 25.07 17.7 63.8 23 -3.9 25.1
17:05 1019 30.09 849 25.07 17.6 63.8 23 -3.7 25.3
17:10 1019 30.09 849 25.07 17.6 63.6 23 -3.5 25.7
17:15 1019 30.09 849 25.07 17.5 63.5 24 -3.2 26.2
17:20 1019 30.09 849 25.07 17.4 63.4 24 -3.4 25.8
17:25 1019 30.09 849 25.07 16.9 62.5 24 -3.8 25.2
17:30 1019 30.09 848 25.04 17.1 62.8 23 -3.8 25.1
17:35 1019 30.09 848 25.04 17.4 63.3 24 -3.5 25.8
17:40 1019 30.09 848 25.04 17.7 63.8 24 -3 26.6
17:45 1019 30.09 848 25.04 17.7 63.8 24 -3.3 26.1
17:50 1019 30.09 848 25.04 17.5 63.6 24 -3.3 26.1
17:55 1019 30.09 848 25.04 17.1 62.8 25 -2.8 26.9
18:00 1019 30.09 848 25.04 16.7 62 26 -2.7 27.1
18:05 1019 30.09 848 25.04 16.4 61.6 26 -2.9 26.8
18:10 1019 30.09 848 25.04 16.6 61.9 26 -2.8 27
18:15 1019 30.09 848 25.04 17.1 62.8 25 -2.9 26.8
18:20 1019 30.09 848 25.04 17.1 62.7 24 -3.5 25.7
18:25 1019 30.09 848 25.04 17.1 62.8 24 -3.3 26.1
18:30 1019 30.09 848 25.04 17.3 63.1 25 -2.8 27
18:35 1019 30.09 848 25.04 17.2 62.9 27 -1.8 28.7
18:40 1019 30.09 848 25.04 16.9 62.4 29 -1.4 29.6
18:45 1019 30.09 848 25.04 16.3 61.4 28 -1.9 28.6
18:50 1019 30.09 848 25.04 16.1 60.9 28 -2.1 28.2
18:55 1019 30.09 848 25.04 15.9 60.5 29 -2.1 28.3
19:00 1019 30.09 848 25.04 16 60.7 32 -0.8 30.6
19:05 1019 30.09 848 25.04 15.8 60.5 29 -1.9 28.6
19:10 1019 30.09 848 25.04 15.7 60.3 31 -1.2 29.8
19:15 1019 30.09 848 25.04 15.6 60 32 -1.1 30
19:20 1019 30.09 848 25.04 15.2 59.3 33 -0.8 30.5
19:25 1019 30.09 848 25.04 15 59 33 -1.1 30
19:30 1019 30.09 848 25.04 14.8 58.6 38 0.6 33.1
19:35 1019 30.09 848 25.04 14.6 58.4 33 -1.2 29.8
19:40 1019 30.09 848 25.04 14.4 57.8 41 1.4 34.6
19:45 1019 30.09 848 25.04 14.3 57.7 39 0.8 33.4
19:50 1019 30.09 848 25.04 13.6 56.5 45 2.1 35.7
19:55 1019 30.09 848 25.04 13.3 56 42 0.6 33.1
20:00 1019 30.09 848 25.04 13 55.4 41 0 32
20:05 1019 30.09 848 25.04 12.9 55.2 42 0.3 32.5
20:10 1019 30.09 848 25.04 12.6 54.7 44 0.7 33.3
20:15 1019 30.09 848 25.04 12.2 53.9 49 1.9 35.4
20:20 1019 30.09 848 25.04 11.4 52.6 53 2.4 36.3
20:25 1019 30.09 848 25.04 11.1 51.9 51 1.5 34.7
20:30 1019 30.09 848 25.04 11.2 52.1 50 1.1 34
20:35 1019 30.09 848 25.04 11.2 52.1 49 1 33.8
20:40 1019 30.09 848 25.04 11.2 52.1 47 0.5 32.8
20:45 1019 30.09 848 25.04 11.2 52.2 44 -0.5 31.2
20:50 1019 30.09 848 25.04 11.9 53.4 44 -0 32
20:55 1019 30.09 848 25.04 11.8 53.2 46 0.6 33.1
21:00 1019 30.09 848 25.04 11.3 52.3 48 0.8 33.4
21:05 1019 30.09 848 25.04 11 51.8 44 -0.7 30.7
21:10 1019 30.09 848 25.04 11.8 53.2 43 -0.4 31.3
21:15 1019 30.09 848 25.04 11.8 53.2 44 0.1 32.2
21:20 1019 30.09 848 25.04 11.5 52.7 44 -0.4 31.3
21:25 1019 30.09 848 25.04 11.5 52.6 46 0.4 32.7
21:30 1019 30.09 848 25.04 11.1 51.9 47 0.3 32.6
21:35 1019 30.09 848 25.04 10.6 51 52 1.1 34
21:40 1019 30.09 848 25.04 10 49.9 53 1 33.8
21:45 1019 30.09 848 25.04 10 50 51 0.3 32.6
21:50 1018 30.06 848 25.04 10.2 50.3 51 0.7 33.2
21:55 1018 30.06 848 25.04 10 50 52 0.7 33.2
22:00 1018 30.06 848 25.04 10 49.9 52 0.5 32.9
22:05 1018 30.06 848 25.04 9.9 49.9 52 0.5 32.9
22:10 1018 30.06 848 25.04 9.9 49.8 52 0.6 33.1
22:15 1018 30.06 848 25.04 9.8 49.7 52 0.4 32.7
22:20 1018 30.06 848 25.04 9.9 49.9 52 0.4 32.8
22:25 1018 30.06 848 25.04 9.9 49.7 51 0.3 32.6
22:30 1018 30.06 847 25.01 9.7 49.5 51 0.2 32.3
22:35 1018 30.06 848 25.04 9.6 49.3 51 0.1 32.2
22:40 1018 30.06 848 25.04 9.8 49.7 49 -0.3 31.5
22:45 1018 30.06 848 25.04 10.4 50.7 46 -0.6 31
22:50 1018 30.06 848 25.04 10.6 51.1 47 -0.3 31.4
22:55 1018 30.06 848 25.04 10.7 51.2 46 -0.5 31.1
23:00 1018 30.06 848 25.04 10.7 51.2 46 -0.5 31.1
23:05 1018 30.06 848 25.04 10.7 51.2 47 -0 32
23:10 1018 30.06 848 25.04 10.3 50.6 46 -0.7 30.7
23:15 1018 30.06 848 25.04 10.9 51.6 45 -0.5 31.1
23:20 1018 30.06 848 25.04 11.2 52.1 45 -0.3 31.4
23:25 1018 30.06 848 25.04 11.1 51.9 45 -0.3 31.5
23:30 1018 30.06 848 25.04 11.1 52 44 -0.7 30.7
23:35 1018 30.06 848 25.04 10.9 51.6 47 -0 31.9
23:40 1018 30.06 848 25.04 10.6 51 46 -0.5 31.1
23:45 1018 30.06 848 25.04 10.3 50.6 48 -0.3 31.5
23:50 1018 30.06 848 25.04 10.3 50.5 48 -0.3 31.5
23:55 1018 30.06 848 25.04 10 50.1 50 0.1 32.1
24:00 1018 30.06 848 25.04 9.6 49.3 51 0 32.1